createdAt,value
2018-09-21T00:01:33.095Z,95.80
2018-09-21T00:06:55.459Z,95.70
2018-09-21T00:12:17.365Z,94.60
2018-09-21T00:17:39.697Z,94.10
2018-09-21T00:23:02.305Z,94.60
2018-09-21T00:28:24.451Z,94.70
2018-09-21T00:33:46.561Z,94.70
2018-09-21T00:39:10.486Z,94.10
2018-09-21T00:44:32.367Z,94.10
2018-09-21T00:49:54.443Z,94.10
2018-09-21T00:55:16.432Z,93.10
2018-09-21T01:00:38.539Z,93.60
2018-09-21T01:06:00.350Z,93.60
2018-09-21T01:11:22.334Z,93.60
2018-09-21T01:16:44.233Z,93.80
2018-09-21T01:22:06.237Z,94.10
2018-09-21T01:27:29.599Z,94.00
2018-09-21T01:32:51.708Z,93.70
2018-09-21T01:38:14.035Z,93.40
2018-09-21T01:43:35.989Z,93.70
2018-09-21T01:48:57.640Z,93.40
2018-09-21T01:54:19.738Z,93.30
2018-09-21T01:59:43.116Z,93.10
2018-09-21T02:05:05.294Z,92.60
2018-09-21T02:10:27.059Z,92.50
2018-09-21T02:15:49.310Z,92.30
2018-09-21T02:21:11.037Z,92.00
2018-09-21T02:26:33.037Z,92.60
2018-09-21T02:31:54.864Z,92.40
2018-09-21T02:37:17.138Z,92.40
2018-09-21T02:42:39.046Z,92.20
2018-09-21T02:48:01.128Z,92.00
2018-09-21T02:53:22.935Z,91.60
2018-09-21T02:58:45.040Z,91.80
2018-09-21T03:04:07.169Z,91.30
2018-09-21T03:09:29.238Z,91.60
2018-09-21T03:14:51.617Z,91.10
2018-09-21T03:20:13.450Z,90.80
2018-09-21T03:25:35.559Z,90.40
2018-09-21T03:30:57.457Z,90.10
2018-09-21T03:36:19.594Z,90.30
2018-09-21T03:41:41.902Z,90.10
2018-09-21T03:47:03.822Z,90.00
2018-09-21T03:52:25.973Z,90.40
2018-09-21T03:57:47.761Z,90.30
2018-09-21T04:03:10.019Z,90.10
2018-09-21T04:08:32.515Z,90.30
2018-09-21T04:13:54.704Z,90.00
2018-09-21T04:19:16.789Z,90.00
2018-09-21T04:24:38.523Z,89.70
2018-09-21T04:30:00.519Z,90.10
2018-09-21T04:35:22.306Z,89.40
2018-09-21T04:40:45.184Z,89.60
2018-09-21T04:46:07.273Z,90.00
2018-09-21T04:51:29.102Z,90.00
2018-09-21T04:56:51.341Z,89.80
2018-09-21T05:02:13.237Z,90.00
2018-09-21T05:07:35.560Z,89.90
2018-09-21T05:12:57.686Z,90.00
2018-09-21T05:18:19.854Z,90.00
2018-09-21T05:23:41.724Z,90.00
2018-09-21T05:29:03.877Z,90.10
2018-09-21T05:34:25.800Z,89.10
2018-09-21T05:39:47.840Z,90.10
2018-09-21T05:45:10.034Z,90.30
2018-09-21T05:50:31.996Z,90.40
2018-09-21T05:55:53.846Z,90.40
2018-09-21T06:01:15.841Z,90.20
2018-09-21T06:06:37.737Z,90.10
2018-09-21T06:12:00.806Z,90.20
2018-09-21T06:17:23.174Z,90.30
2018-09-21T06:22:45.519Z,90.00
2018-09-21T06:28:07.846Z,90.40
2018-09-21T06:33:30.465Z,90.40
2018-09-21T06:38:52.829Z,90.50
2018-09-21T06:44:14.909Z,90.70
2018-09-21T06:49:37.895Z,90.80
2018-09-21T06:55:00.089Z,90.90
2018-09-21T07:00:23.250Z,90.80
2018-09-21T07:05:44.878Z,90.60
2018-09-21T07:11:06.963Z,90.70
2018-09-21T07:16:28.754Z,90.50
2018-09-21T07:21:50.981Z,91.00
2018-09-21T07:27:12.850Z,90.20
2018-09-21T07:32:34.949Z,88.80
2018-09-21T07:37:57.249Z,89.00
2018-09-21T07:43:19.230Z,89.10
2018-09-21T07:48:41.610Z,88.80
2018-09-21T07:54:04.041Z,88.50
2018-09-21T07:59:28.262Z,89.50
2018-09-21T08:04:50.656Z,88.40
2018-09-21T08:10:14.315Z,87.50
2018-09-21T08:15:37.687Z,87.30
2018-09-21T08:21:02.075Z,86.90
2018-09-21T08:26:27.064Z,84.80
2018-09-21T08:31:51.949Z,84.40
2018-09-21T08:37:14.306Z,84.70
2018-09-21T08:42:36.459Z,85.10
2018-09-21T08:47:58.419Z,84.00
2018-09-21T08:53:20.538Z,84.30
2018-09-21T08:58:43.028Z,84.80
2018-09-21T09:04:04.831Z,83.40
2018-09-21T09:09:26.945Z,82.80
2018-09-21T09:14:48.809Z,80.50
2018-09-21T09:20:11.274Z,80.90
2018-09-21T09:25:33.491Z,79.20
2018-09-21T09:30:55.389Z,78.50
2018-09-21T09:36:17.467Z,76.50
2018-09-21T09:41:39.314Z,77.20
2018-09-21T09:47:01.507Z,74.60
2018-09-21T09:52:23.374Z,77.30
2018-09-21T09:57:45.388Z,75.70
2018-09-21T10:03:07.793Z,71.80
2018-09-21T10:08:29.737Z,73.00
2018-09-21T10:13:51.950Z,73.30
2018-09-21T10:19:16.184Z,74.10
2018-09-21T10:24:38.317Z,73.60
2018-09-21T10:30:03.394Z,75.30
2018-09-21T10:35:26.074Z,79.20
2018-09-21T10:40:50.975Z,80.20
2018-09-21T10:46:15.070Z,80.80
2018-09-21T10:51:37.195Z,79.70
2018-09-21T10:57:00.947Z,77.60
2018-09-21T11:02:22.933Z,77.90
2018-09-21T11:07:44.872Z,74.60
2018-09-21T11:13:06.936Z,74.50
2018-09-21T11:18:28.754Z,70.20
2018-09-21T11:23:57.762Z,71.00
2018-09-21T11:29:20.014Z,70.80
2018-09-21T11:34:42.278Z,70.80
2018-09-21T11:40:04.209Z,69.00
2018-09-21T11:45:26.628Z,68.90
2018-09-21T11:50:48.872Z,65.20
2018-09-21T11:56:10.725Z,64.30
2018-09-21T12:01:34.461Z,64.40
2018-09-21T12:06:56.349Z,65.30
2018-09-21T12:12:18.479Z,64.50
2018-09-21T12:17:40.339Z,60.50
2018-09-21T12:23:02.565Z,59.70
2018-09-21T12:28:24.884Z,58.10
2018-09-21T12:33:46.706Z,59.40
2018-09-21T12:39:11.859Z,58.50
2018-09-21T12:44:33.908Z,59.00
2018-09-21T12:49:56.047Z,58.20
2018-09-21T12:55:17.922Z,58.50
2018-09-21T13:00:48.149Z,61.20
2018-09-21T13:06:10.430Z,58.70
2018-09-21T13:11:32.271Z,58.20
2018-09-21T13:16:54.410Z,59.10
2018-09-21T13:22:16.310Z,58.60
2018-09-21T13:27:41.028Z,58.90
2018-09-21T13:33:03.305Z,60.20
2018-09-21T13:38:25.654Z,59.20
2018-09-21T13:43:48.287Z,59.70
2018-09-21T13:49:10.910Z,60.20
2018-09-21T13:54:32.760Z,60.00
2018-09-21T13:59:54.806Z,59.20
2018-09-21T14:05:16.759Z,58.50
2018-09-21T14:10:38.986Z,59.60
2018-09-21T14:16:01.227Z,59.80
2018-09-21T14:21:23.108Z,60.00
2018-09-21T14:26:46.506Z,59.60
2018-09-21T14:32:10.594Z,59.60
2018-09-21T14:37:34.855Z,59.80
2018-09-21T14:42:57.963Z,60.20
2018-09-21T14:48:22.407Z,61.10
2018-09-21T14:53:46.192Z,60.90
2018-09-21T14:59:10.358Z,62.80
2018-09-21T15:04:34.768Z,61.40
2018-09-21T15:09:58.782Z,59.60
2018-09-21T15:15:22.565Z,59.70
2018-09-21T15:30:25.215Z,59.20
2018-09-21T15:35:47.487Z,60.10
2018-09-21T15:41:09.282Z,59.30
2018-09-21T15:46:31.499Z,60.20
2018-09-21T15:51:53.337Z,61.20
2018-09-21T15:57:15.528Z,61.00
2018-09-21T16:02:37.991Z,60.00
2018-09-21T16:08:00.202Z,59.30
2018-09-21T16:13:22.413Z,60.70
2018-09-21T16:18:44.251Z,60.30
2018-09-21T16:24:06.283Z,60.30
2018-09-21T16:29:28.015Z,61.80
2018-09-21T16:34:50.995Z,61.90
2018-09-21T16:40:13.112Z,60.30
2018-09-21T16:45:34.913Z,60.40
2018-09-21T16:50:57.173Z,60.20
2018-09-21T16:56:19.475Z,62.40
2018-09-21T17:01:41.488Z,62.40
2018-09-21T17:07:04.015Z,63.80
2018-09-21T17:12:26.280Z,63.00
2018-09-21T17:17:48.160Z,64.70
2018-09-21T17:23:10.913Z,66.50
2018-09-21T17:28:33.408Z,65.20
2018-09-21T17:33:55.375Z,65.60
2018-09-21T17:39:17.658Z,66.40
2018-09-21T17:44:39.763Z,67.20
2018-09-21T17:50:01.527Z,67.80
2018-09-21T17:55:23.717Z,68.50
2018-09-21T18:00:45.594Z,68.50
2018-09-21T18:06:07.825Z,67.60
2018-09-21T18:11:29.774Z,68.60
2018-09-21T18:16:51.999Z,69.60
2018-09-21T18:22:13.855Z,69.40
2018-09-21T18:27:35.555Z,69.80
2018-09-21T18:32:59.967Z,69.60
2018-09-21T18:38:25.532Z,70.20
2018-09-21T18:43:48.666Z,70.80
2018-09-21T18:49:10.633Z,71.00
2018-09-21T18:54:32.357Z,71.60
2018-09-21T18:59:54.450Z,71.70
2018-09-21T19:05:16.350Z,72.60
2018-09-21T19:10:38.513Z,73.20
2018-09-21T19:16:00.469Z,73.60
2018-09-21T19:21:22.931Z,73.90
2018-09-21T19:26:45.191Z,74.00
2018-09-21T19:32:07.095Z,74.10
2018-09-21T19:37:29.330Z,74.40
2018-09-21T19:42:51.295Z,74.80
2018-09-21T19:48:13.690Z,74.20
2018-09-21T19:53:36.110Z,74.60
2018-09-21T19:58:58.090Z,74.50
2018-09-21T20:04:20.239Z,74.10
2018-09-21T20:09:42.836Z,74.70
2018-09-21T20:15:07.888Z,75.10
2018-09-21T20:20:30.342Z,75.00
2018-09-21T20:25:52.517Z,75.20
2018-09-21T20:31:19.994Z,75.10
2018-09-21T20:36:42.028Z,75.20
2018-09-21T20:42:04.189Z,75.40
2018-09-21T20:47:26.521Z,75.30
2018-09-21T20:52:48.566Z,75.10
2018-09-21T20:58:11.037Z,74.80
2018-09-21T21:03:32.834Z,74.70
2018-09-21T21:08:54.830Z,74.60
2018-09-21T21:14:16.658Z,75.00
2018-09-21T21:19:39.039Z,75.80
2018-09-21T21:25:01.021Z,74.90
2018-09-21T21:30:22.949Z,74.80
2018-09-21T21:35:44.701Z,75.20
2018-09-21T21:41:07.179Z,75.30
2018-09-21T21:46:29.505Z,75.00
2018-09-21T21:51:51.793Z,74.70
2018-09-21T21:57:14.248Z,75.10
2018-09-21T22:02:36.473Z,74.60
2018-09-21T22:07:58.703Z,75.90
2018-09-21T22:13:25.264Z,75.10
2018-09-21T22:18:47.273Z,75.40
2018-09-21T22:24:09.159Z,75.90
2018-09-21T22:29:31.190Z,74.30
2018-09-21T22:34:53.009Z,73.80
2018-09-21T22:40:15.069Z,74.50
2018-09-21T22:45:36.977Z,74.20
2018-09-21T22:50:59.050Z,74.60
2018-09-21T22:56:20.934Z,74.80
2018-09-21T23:01:43.186Z,75.40
2018-09-21T23:07:05.042Z,75.90
2018-09-21T23:12:27.131Z,75.50
2018-09-21T23:17:49.146Z,76.40
2018-09-21T23:23:11.117Z,76.10
2018-09-21T23:28:33.011Z,76.40
2018-09-21T23:33:55.714Z,77.20
2018-09-21T23:39:17.998Z,76.30
2018-09-21T23:44:39.862Z,75.90
2018-09-21T23:50:01.957Z,76.60
2018-09-21T23:55:23.761Z,77.40
